Aviation Digital Data Service (ADDS)

Output produced by METARs form (0638 UTC 30 September 2016)
found at http://aviationweather.gov/adds/metars/
 
KBPT 300520Z 3006/0106 02009KT P6SM SKC